APK225 HTDA-FMEE
Flight info
| Callsign | APK225 |
|---|---|
| Flight time | N/A |
| Altitude | 35000 |
| Route | DUDNA1D KISIR UA401 KINAN UB790 DOBUT DOBUT2R |
| Aircraft | B77W/H-SDE1E2E3FGHIJ2J3J4J5M1RWXY/LB1D1 |
Departure
| Time | 2026-04-26 15:59 |
|---|---|
| Airport | Julius Nyerere International Airport (HTDA) |
Arrival
| Time | N/A |
|---|---|
| Airport | Roland Garros Airport (FMEE) |
| Time | Latitude | Longitude | Altitude | Speed | Heading |
|---|---|---|---|---|---|
| 2026-04-26 15:43 | -6.86430 | 39.21194 | 147 ft | 0 kts | 315° |
| 2026-04-26 15:50 | -6.86432 | 39.21196 | 185 ft | 1 kts | 315° |
| 2026-04-26 15:50 | -6.86445 | 39.21209 | 203 ft | 3 kts | 315° |
| 2026-04-26 15:50 | -6.86457 | 39.21221 | 197 ft | 2 kts | 316° |
| 2026-04-26 15:51 | -6.86470 | 39.21232 | 202 ft | 3 kts | 333° |
| 2026-04-26 15:51 | -6.86484 | 39.21238 | 202 ft | 3 kts | 1° |
| 2026-04-26 15:51 | -6.86497 | 39.21236 | 203 ft | 3 kts | 33° |
| 2026-04-26 15:51 | -6.86511 | 39.21224 | 203 ft | 3 kts | 48° |
| 2026-04-26 15:52 | -6.86524 | 39.21210 | 203 ft | 2 kts | 46° |
| 2026-04-26 15:52 | -6.86530 | 39.21204 | 203 ft | 0 kts | 45° |
| 2026-04-26 15:55 | -6.86523 | 39.21211 | 195 ft | 6 kts | 45° |
| 2026-04-26 15:56 | -6.86463 | 39.21270 | 200 ft | 18 kts | 45° |
| 2026-04-26 15:56 | -6.86412 | 39.21383 | 195 ft | 19 kts | 87° |
| 2026-04-26 15:56 | -6.86347 | 39.21491 | 199 ft | 19 kts | 48° |
| 2026-04-26 15:56 | -6.86316 | 39.21610 | 181 ft | 19 kts | 111° |
| 2026-04-26 15:57 | -6.86367 | 39.21672 | 179 ft | 1 kts | 156° |
| 2026-04-26 15:57 | -6.86369 | 39.21673 | 179 ft | 1 kts | 162° |
| 2026-04-26 15:57 | -6.86387 | 39.21671 | 179 ft | 3 kts | 188° |
| 2026-04-26 15:57 | -6.86406 | 39.21661 | 180 ft | 6 kts | 214° |
| 2026-04-26 15:58 | -6.86417 | 39.21650 | 180 ft | 0 kts | 225° |
| 2026-04-26 15:58 | -6.86432 | 39.21636 | 181 ft | 13 kts | 225° |
| 2026-04-26 15:58 | -6.86700 | 39.21369 | 201 ft | 101 kts | 224° |
| 2026-04-26 15:59 | -6.87413 | 39.20660 | 200 ft | 185 kts | 224° |
| 2026-04-26 15:59 | -6.88392 | 39.19701 | 972 ft | 196 kts | 223° |
| 2026-04-26 15:59 | -6.89328 | 39.18772 | 2196 ft | 189 kts | 222° |
| 2026-04-26 15:59 | -6.90285 | 39.17804 | 3036 ft | 199 kts | 223° |
| 2026-04-26 16:00 | -6.91434 | 39.16939 | 3246 ft | 217 kts | 193° |
| 2026-04-26 16:00 | -6.93009 | 39.16849 | 3449 ft | 241 kts | 176° |
| 2026-04-26 16:00 | -6.94742 | 39.16911 | 3995 ft | 253 kts | 175° |
| 2026-04-26 16:00 | -6.96430 | 39.17429 | 4623 ft | 260 kts | 144° |
| 2026-04-26 16:01 | -6.97793 | 39.18622 | 5361 ft | 264 kts | 137° |
| 2026-04-26 16:01 | -6.99142 | 39.19893 | 6228 ft | 267 kts | 137° |
| 2026-04-26 16:01 | -7.00509 | 39.21177 | 7044 ft | 270 kts | 137° |
| 2026-04-26 16:01 | -7.01903 | 39.22476 | 7806 ft | 276 kts | 137° |
| 2026-04-26 16:02 | -7.03331 | 39.23794 | 8562 ft | 281 kts | 137° |
| 2026-04-26 16:02 | -7.04787 | 39.25129 | 9328 ft | 286 kts | 137° |
| 2026-04-26 16:02 | -7.06270 | 39.26482 | 10081 ft | 290 kts | 137° |
| 2026-04-26 16:02 | -7.07275 | 39.27394 | 10463 ft | 299 kts | 137° |
| 2026-04-26 16:03 | -7.09461 | 39.29374 | 10743 ft | 333 kts | 137° |
| 2026-04-26 16:03 | -7.10627 | 39.30428 | 10853 ft | 349 kts | 137° |
| 2026-04-26 16:03 | -7.13147 | 39.32699 | 11272 ft | 374 kts | 137° |
| 2026-04-26 16:03 | -7.15111 | 39.34465 | 11903 ft | 382 kts | 137° |
| 2026-04-26 16:04 | -7.17105 | 39.36257 | 12632 ft | 387 kts | 137° |
| 2026-04-26 16:04 | -7.19121 | 39.38068 | 13414 ft | 390 kts | 137° |
| 2026-04-26 16:04 | -7.21157 | 39.39896 | 14122 ft | 394 kts | 137° |
| 2026-04-26 16:04 | -7.23213 | 39.41743 | 14771 ft | 397 kts | 137° |
| 2026-04-26 16:05 | -7.25283 | 39.43602 | 15435 ft | 401 kts | 137° |
| 2026-04-26 16:05 | -7.27372 | 39.45479 | 16093 ft | 404 kts | 137° |
| 2026-04-26 16:05 | -7.29451 | 39.47347 | 16751 ft | 407 kts | 137° |
| 2026-04-26 16:05 | -7.31579 | 39.49258 | 17391 ft | 411 kts | 137° |
| 2026-04-26 16:06 | -7.33635 | 39.51106 | 17990 ft | 414 kts | 137° |
| 2026-04-26 16:06 | -7.35796 | 39.53048 | 18571 ft | 418 kts | 137° |
| 2026-04-26 16:06 | -7.37979 | 39.55011 | 19087 ft | 422 kts | 137° |
| 2026-04-26 16:06 | -7.40182 | 39.56992 | 19565 ft | 427 kts | 138° |
| 2026-04-26 16:07 | -7.42404 | 39.58991 | 20067 ft | 431 kts | 138° |
| 2026-04-26 16:07 | -7.44658 | 39.61017 | 20578 ft | 435 kts | 138° |
| 2026-04-26 16:07 | -7.46923 | 39.63055 | 21104 ft | 438 kts | 137° |
| 2026-04-26 16:07 | -7.49206 | 39.65109 | 21565 ft | 443 kts | 137° |
| 2026-04-26 16:08 | -7.50731 | 39.66481 | 21862 ft | 446 kts | 137° |
| 2026-04-26 16:08 | -7.53057 | 39.68574 | 22347 ft | 449 kts | 137° |
| 2026-04-26 16:08 | -7.55396 | 39.70679 | 22858 ft | 452 kts | 137° |
| 2026-04-26 16:08 | -7.57756 | 39.72804 | 23231 ft | 458 kts | 137° |
| 2026-04-26 16:09 | -7.60144 | 39.74953 | 23650 ft | 461 kts | 138° |
| 2026-04-26 16:09 | -7.62541 | 39.77111 | 24045 ft | 464 kts | 138° |
| 2026-04-26 16:09 | -7.64953 | 39.79284 | 24446 ft | 466 kts | 137° |
| 2026-04-26 16:09 | -7.67379 | 39.81469 | 24833 ft | 468 kts | 138° |
| 2026-04-26 16:10 | -7.69820 | 39.83668 | 25222 ft | 470 kts | 137° |
| 2026-04-26 16:10 | -7.72234 | 39.85843 | 25584 ft | 473 kts | 138° |
| 2026-04-26 16:10 | -7.74695 | 39.88061 | 25940 ft | 476 kts | 137° |
| 2026-04-26 16:10 | -7.77177 | 39.90298 | 26290 ft | 479 kts | 137° |
| 2026-04-26 16:11 | -7.79665 | 39.92541 | 26635 ft | 481 kts | 137° |
| 2026-04-26 16:11 | -7.82166 | 39.94796 | 26980 ft | 484 kts | 137° |
| 2026-04-26 16:11 | -7.84684 | 39.97066 | 27298 ft | 486 kts | 137° |
| 2026-04-26 16:11 | -7.87216 | 39.99351 | 27611 ft | 489 kts | 137° |
| 2026-04-26 16:12 | -7.89758 | 40.01644 | 27922 ft | 492 kts | 137° |
| 2026-04-26 16:12 | -7.92316 | 40.03951 | 28210 ft | 494 kts | 137° |
| 2026-04-26 16:12 | -7.97467 | 40.08601 | 28792 ft | 499 kts | 137° |
| 2026-04-26 16:13 | -8.00065 | 40.10946 | 29035 ft | 502 kts | 137° |
| 2026-04-26 16:13 | -8.02675 | 40.13303 | 29288 ft | 504 kts | 137° |
| 2026-04-26 16:13 | -8.05297 | 40.15671 | 29545 ft | 506 kts | 137° |
| 2026-04-26 16:13 | -8.07923 | 40.18042 | 29828 ft | 508 kts | 137° |
| 2026-04-26 16:14 | -8.10523 | 40.20392 | 30133 ft | 507 kts | 137° |
| 2026-04-26 16:14 | -8.13149 | 40.22766 | 30449 ft | 507 kts | 137° |
| 2026-04-26 16:14 | -8.18405 | 40.27509 | 31023 ft | 507 kts | 138° |
| 2026-04-26 16:15 | -8.21087 | 40.29827 | 31308 ft | 508 kts | 139° |
| 2026-04-26 16:15 | -8.23807 | 40.32097 | 31607 ft | 508 kts | 140° |
| 2026-04-26 16:15 | -8.26543 | 40.34351 | 31904 ft | 508 kts | 140° |
| 2026-04-26 16:16 | -8.32015 | 40.38863 | 32529 ft | 507 kts | 140° |
| 2026-04-26 16:16 | -8.34736 | 40.41126 | 32840 ft | 506 kts | 139° |
| 2026-04-26 16:16 | -8.37450 | 40.43393 | 33170 ft | 505 kts | 139° |
| 2026-04-26 16:16 | -8.40151 | 40.45655 | 33521 ft | 504 kts | 139° |
| 2026-04-26 16:17 | -8.42845 | 40.47915 | 33861 ft | 503 kts | 139° |
| 2026-04-26 16:17 | -8.44636 | 40.49419 | 34041 ft | 503 kts | 139° |
| 2026-04-26 16:17 | -8.48063 | 40.52296 | 34355 ft | 503 kts | 139° |
| 2026-04-26 16:17 | -8.50753 | 40.54553 | 34583 ft | 503 kts | 139° |
| 2026-04-26 16:18 | -8.53444 | 40.56811 | 34828 ft | 503 kts | 139° |
| 2026-04-26 16:18 | -8.58858 | 40.61355 | 34925 ft | 507 kts | 139° |
| 2026-04-26 16:19 | -8.66923 | 40.68124 | 34952 ft | 502 kts | 139° |
| 2026-04-26 16:20 | -8.74962 | 40.74877 | 34960 ft | 500 kts | 139° |
| 2026-04-26 16:20 | -8.82989 | 40.81625 | 34957 ft | 501 kts | 139° |
| 2026-04-26 16:21 | -8.88355 | 40.86137 | 34961 ft | 502 kts | 139° |
| 2026-04-26 16:21 | -8.93745 | 40.90671 | 34958 ft | 504 kts | 139° |
| 2026-04-26 16:22 | -8.99153 | 40.95223 | 34958 ft | 506 kts | 139° |
| 2026-04-26 16:22 | -9.04523 | 40.99744 | 34958 ft | 506 kts | 139° |
| 2026-04-26 16:23 | -9.09944 | 41.04310 | 34960 ft | 507 kts | 139° |
| 2026-04-26 16:23 | -9.15364 | 41.08877 | 34955 ft | 507 kts | 139° |
| 2026-04-26 16:24 | -9.20786 | 41.13448 | 34955 ft | 507 kts | 139° |
| 2026-04-26 16:24 | -9.26210 | 41.18022 | 34957 ft | 507 kts | 139° |
| 2026-04-26 16:25 | -9.31628 | 41.22594 | 34955 ft | 507 kts | 139° |
| 2026-04-26 16:25 | -9.37042 | 41.27164 | 34956 ft | 506 kts | 140° |
| 2026-04-26 16:26 | -9.41547 | 41.30968 | 34959 ft | 506 kts | 140° |
| 2026-04-26 16:26 | -9.47836 | 41.36275 | 34955 ft | 507 kts | 140° |
| 2026-04-26 16:27 | -9.53256 | 41.40849 | 34957 ft | 507 kts | 140° |
| 2026-04-26 16:27 | -9.58671 | 41.45422 | 34957 ft | 507 kts | 140° |
| 2026-04-26 16:28 | -9.64097 | 41.50008 | 34958 ft | 508 kts | 140° |
| 2026-04-26 16:28 | -9.69521 | 41.54594 | 34957 ft | 508 kts | 140° |
| 2026-04-26 16:29 | -9.74948 | 41.59185 | 34957 ft | 508 kts | 140° |
| 2026-04-26 16:29 | -9.80379 | 41.63781 | 34959 ft | 509 kts | 140° |
| 2026-04-26 16:30 | -9.85819 | 41.68387 | 34960 ft | 509 kts | 140° |
| 2026-04-26 16:30 | -9.91254 | 41.72990 | 34958 ft | 509 kts | 140° |
| 2026-04-26 16:31 | -9.96658 | 41.77570 | 34957 ft | 509 kts | 140° |
| 2026-04-26 16:31 | -10.02093 | 41.82177 | 34961 ft | 509 kts | 140° |
| 2026-04-26 16:32 | -10.06613 | 41.86011 | 34962 ft | 509 kts | 140° |
| 2026-04-26 16:32 | -10.12969 | 41.91404 | 34958 ft | 510 kts | 140° |
| 2026-04-26 16:33 | -10.18408 | 41.96021 | 34958 ft | 510 kts | 140° |
| 2026-04-26 16:33 | -10.23853 | 42.00646 | 34960 ft | 510 kts | 140° |
| 2026-04-26 16:34 | -10.29293 | 42.05268 | 34960 ft | 510 kts | 140° |
| 2026-04-26 16:34 | -10.34733 | 42.09893 | 34962 ft | 510 kts | 140° |
| 2026-04-26 16:35 | -10.40137 | 42.14488 | 34962 ft | 510 kts | 140° |
| 2026-04-26 16:35 | -10.45574 | 42.19115 | 34959 ft | 510 kts | 140° |
| 2026-04-26 16:36 | -10.51051 | 42.23778 | 34959 ft | 510 kts | 140° |
| 2026-04-26 16:36 | -10.56453 | 42.28379 | 34958 ft | 510 kts | 140° |
| 2026-04-26 16:37 | -10.61007 | 42.32260 | 34960 ft | 510 kts | 140° |
| 2026-04-26 16:37 | -10.66448 | 42.36900 | 34960 ft | 510 kts | 140° |
| 2026-04-26 16:38 | -10.72768 | 42.42291 | 34962 ft | 510 kts | 140° |
| 2026-04-26 16:38 | -10.77857 | 42.47298 | 34962 ft | 509 kts | 133° |
| 2026-04-26 16:39 | -10.82669 | 42.52591 | 34961 ft | 509 kts | 132° |
| 2026-04-26 16:39 | -10.87482 | 42.57892 | 34960 ft | 509 kts | 133° |
| 2026-04-26 16:40 | -10.91496 | 42.62273 | 34959 ft | 510 kts | 133° |
| 2026-04-26 16:40 | -10.96343 | 42.67541 | 34957 ft | 510 kts | 133° |
| 2026-04-26 16:41 | -11.01188 | 42.72807 | 34958 ft | 510 kts | 133° |
| 2026-04-26 16:41 | -11.06823 | 42.78937 | 34959 ft | 510 kts | 133° |
| 2026-04-26 16:42 | -11.11670 | 42.84216 | 34956 ft | 512 kts | 133° |
| 2026-04-26 16:42 | -11.16550 | 42.89532 | 34967 ft | 514 kts | 133° |
| 2026-04-26 16:43 | -11.21442 | 42.94866 | 34964 ft | 516 kts | 133° |
| 2026-04-26 16:43 | -11.26351 | 43.00219 | 34959 ft | 518 kts | 133° |
| 2026-04-26 16:44 | -11.31266 | 43.05583 | 34954 ft | 518 kts | 133° |
| 2026-04-26 16:44 | -11.36196 | 43.10967 | 34948 ft | 518 kts | 133° |
| 2026-04-26 16:45 | -11.41108 | 43.16334 | 34941 ft | 517 kts | 133° |
| 2026-04-26 16:45 | -11.45981 | 43.21661 | 34940 ft | 517 kts | 133° |
| 2026-04-26 16:46 | -11.50849 | 43.27038 | 34938 ft | 516 kts | 130° |
| 2026-04-26 16:46 | -11.55067 | 43.32936 | 34946 ft | 515 kts | 123° |
| 2026-04-26 16:47 | -11.58990 | 43.39056 | 34938 ft | 515 kts | 122° |
| 2026-04-26 16:47 | -11.62916 | 43.45167 | 34945 ft | 515 kts | 123° |
| 2026-04-26 16:48 | -11.66876 | 43.51266 | 34949 ft | 516 kts | 123° |
| 2026-04-26 16:48 | -11.70850 | 43.57359 | 34951 ft | 516 kts | 123° |
| 2026-04-26 16:49 | -11.74834 | 43.63471 | 34954 ft | 516 kts | 123° |
| 2026-04-26 16:49 | -11.78809 | 43.69576 | 34953 ft | 517 kts | 123° |
| 2026-04-26 16:50 | -11.82787 | 43.75690 | 34954 ft | 517 kts | 123° |
| 2026-04-26 16:50 | -11.86769 | 43.81818 | 34951 ft | 518 kts | 123° |
| 2026-04-26 16:51 | -11.90722 | 43.87903 | 34951 ft | 518 kts | 123° |
| 2026-04-26 16:51 | -11.94707 | 43.94041 | 34952 ft | 518 kts | 123° |
| 2026-04-26 16:52 | -11.97370 | 43.98145 | 34956 ft | 518 kts | 123° |
| 2026-04-26 16:52 | -12.02668 | 44.06314 | 34956 ft | 518 kts | 123° |
| 2026-04-26 16:53 | -12.06652 | 44.12463 | 34957 ft | 518 kts | 123° |
| 2026-04-26 16:53 | -12.10635 | 44.18614 | 34962 ft | 518 kts | 123° |
| 2026-04-26 16:54 | -12.14615 | 44.24764 | 34959 ft | 519 kts | 123° |
| 2026-04-26 16:54 | -12.17921 | 44.29874 | 34955 ft | 519 kts | 123° |
| 2026-04-26 16:55 | -12.22547 | 44.37032 | 34954 ft | 519 kts | 123° |
| 2026-04-26 16:55 | -12.26521 | 44.43183 | 34944 ft | 518 kts | 123° |
| 2026-04-26 16:56 | -12.31808 | 44.51374 | 34955 ft | 518 kts | 123° |
| 2026-04-26 16:57 | -12.35780 | 44.57533 | 34960 ft | 519 kts | 123° |
| 2026-04-26 16:57 | -12.41749 | 44.66797 | 34951 ft | 520 kts | 123° |
| 2026-04-26 16:58 | -12.45084 | 44.71976 | 34947 ft | 521 kts | 123° |
| 2026-04-26 16:59 | -12.51704 | 44.82265 | 34951 ft | 521 kts | 123° |
| 2026-04-26 17:00 | -12.59668 | 44.94658 | 34949 ft | 521 kts | 123° |
| 2026-04-26 17:00 | -12.65638 | 45.03960 | 34944 ft | 521 kts | 123° |
| 2026-04-26 17:01 | -12.69620 | 45.10170 | 34943 ft | 521 kts | 123° |
| 2026-04-26 17:01 | -12.73599 | 45.16379 | 34931 ft | 521 kts | 123° |
| 2026-04-26 17:02 | -12.77580 | 45.22597 | 34931 ft | 522 kts | 123° |
| 2026-04-26 17:02 | -12.81628 | 45.28756 | 34946 ft | 521 kts | 127° |
| 2026-04-26 17:03 | -12.86305 | 45.34430 | 34970 ft | 521 kts | 132° |
| 2026-04-26 17:03 | -12.91105 | 45.40007 | 34958 ft | 521 kts | 132° |
| 2026-04-26 17:04 | -12.95882 | 45.45611 | 34953 ft | 522 kts | 131° |
| 2026-04-26 17:04 | -13.00598 | 45.51200 | 34938 ft | 522 kts | 131° |
| 2026-04-26 17:05 | -13.05340 | 45.56840 | 34940 ft | 522 kts | 131° |
| 2026-04-26 17:05 | -13.10085 | 45.62485 | 34947 ft | 522 kts | 131° |
| 2026-04-26 17:06 | -13.14838 | 45.68137 | 34940 ft | 523 kts | 131° |
| 2026-04-26 17:06 | -13.19589 | 45.73791 | 34942 ft | 523 kts | 131° |
| 2026-04-26 17:07 | -13.24340 | 45.79448 | 34939 ft | 523 kts | 131° |
| 2026-04-26 17:07 | -13.29091 | 45.85109 | 34934 ft | 523 kts | 131° |
| 2026-04-26 17:08 | -13.33833 | 45.90764 | 34937 ft | 523 kts | 131° |
| 2026-04-26 17:08 | -13.38545 | 45.96386 | 34943 ft | 523 kts | 131° |
| 2026-04-26 17:09 | -13.42515 | 46.01126 | 34932 ft | 523 kts | 131° |
| 2026-04-26 17:09 | -13.48028 | 46.07713 | 34932 ft | 523 kts | 131° |
| 2026-04-26 17:10 | -13.52770 | 46.13382 | 34934 ft | 523 kts | 131° |
| 2026-04-26 17:10 | -13.57514 | 46.19059 | 34932 ft | 523 kts | 131° |
| 2026-04-26 17:11 | -13.62262 | 46.24740 | 34930 ft | 523 kts | 131° |
| 2026-04-26 17:11 | -13.67009 | 46.30418 | 34935 ft | 523 kts | 131° |
| 2026-04-26 17:12 | -13.74100 | 46.38910 | 34928 ft | 524 kts | 131° |
| 2026-04-26 17:13 | -13.81221 | 46.47450 | 34929 ft | 524 kts | 131° |
| 2026-04-26 17:14 | -13.88338 | 46.55993 | 34923 ft | 524 kts | 131° |
| 2026-04-26 17:14 | -13.95415 | 46.64497 | 34927 ft | 524 kts | 131° |
| 2026-04-26 17:15 | -14.02523 | 46.73047 | 34925 ft | 524 kts | 131° |
| 2026-04-26 17:16 | -14.07262 | 46.78753 | 34921 ft | 524 kts | 131° |
| 2026-04-26 17:16 | -14.11996 | 46.84457 | 34923 ft | 524 kts | 131° |
| 2026-04-26 17:17 | -14.16731 | 46.90164 | 34925 ft | 524 kts | 131° |
| 2026-04-26 17:17 | -14.21468 | 46.95880 | 34925 ft | 524 kts | 132° |
| 2026-04-26 17:18 | -14.26209 | 47.01604 | 34927 ft | 525 kts | 132° |
| 2026-04-26 17:18 | -14.30919 | 47.07295 | 34924 ft | 525 kts | 132° |
| 2026-04-26 17:19 | -14.38025 | 47.15887 | 34920 ft | 525 kts | 132° |
| 2026-04-26 17:19 | -14.42765 | 47.21624 | 34924 ft | 525 kts | 132° |
| 2026-04-26 17:20 | -14.46704 | 47.26395 | 34920 ft | 525 kts | 132° |
| 2026-04-26 17:20 | -14.52245 | 47.33110 | 34922 ft | 525 kts | 132° |
| 2026-04-26 17:21 | -14.56981 | 47.38855 | 34922 ft | 526 kts | 132° |
| 2026-04-26 17:21 | -14.61717 | 47.44603 | 34923 ft | 526 kts | 132° |
| 2026-04-26 17:22 | -14.66459 | 47.50364 | 34923 ft | 526 kts | 132° |
| 2026-04-26 17:22 | -14.71198 | 47.56125 | 34920 ft | 526 kts | 132° |
| 2026-04-26 17:23 | -14.75899 | 47.61844 | 34924 ft | 526 kts | 132° |
| 2026-04-26 17:23 | -14.80639 | 47.67614 | 34926 ft | 527 kts | 132° |
| 2026-04-26 17:24 | -14.85381 | 47.73391 | 34923 ft | 527 kts | 132° |
| 2026-04-26 17:24 | -14.90125 | 47.79175 | 34925 ft | 527 kts | 132° |
| 2026-04-26 17:25 | -14.94869 | 47.84963 | 34926 ft | 527 kts | 132° |
| 2026-04-26 17:25 | -14.99610 | 47.90752 | 34928 ft | 527 kts | 132° |
| 2026-04-26 17:26 | -15.04314 | 47.96500 | 34931 ft | 527 kts | 132° |
| 2026-04-26 17:26 | -15.09051 | 48.02293 | 34936 ft | 527 kts | 132° |
| 2026-04-26 17:27 | -15.13784 | 48.08085 | 34933 ft | 527 kts | 132° |
| 2026-04-26 17:27 | -15.18516 | 48.13880 | 34939 ft | 527 kts | 132° |
| 2026-04-26 17:28 | -15.23252 | 48.19684 | 34938 ft | 527 kts | 132° |
| 2026-04-26 17:28 | -15.27986 | 48.25491 | 34945 ft | 527 kts | 132° |
| 2026-04-26 17:29 | -15.31917 | 48.30316 | 34952 ft | 527 kts | 132° |
| 2026-04-26 17:29 | -15.37444 | 48.37106 | 34962 ft | 527 kts | 132° |
| 2026-04-26 17:30 | -15.42171 | 48.42917 | 34968 ft | 527 kts | 132° |
| 2026-04-26 17:30 | -15.46898 | 48.48732 | 34970 ft | 527 kts | 133° |
| 2026-04-26 17:31 | -15.51591 | 48.54512 | 34974 ft | 527 kts | 133° |
| 2026-04-26 17:31 | -15.56313 | 48.60331 | 34989 ft | 527 kts | 133° |
| 2026-04-26 17:32 | -15.61032 | 48.66151 | 34993 ft | 527 kts | 133° |
| 2026-04-26 17:32 | -15.65756 | 48.71981 | 35000 ft | 527 kts | 133° |
| 2026-04-26 17:33 | -15.70470 | 48.77805 | 35000 ft | 527 kts | 133° |
| 2026-04-26 17:34 | -15.76742 | 48.85559 | 35008 ft | 527 kts | 133° |
| 2026-04-26 17:34 | -15.82254 | 48.92380 | 35023 ft | 527 kts | 133° |
| 2026-04-26 17:35 | -15.86973 | 48.98225 | 35030 ft | 528 kts | 133° |
| 2026-04-26 17:35 | -15.91689 | 49.04072 | 35033 ft | 528 kts | 133° |
| 2026-04-26 17:36 | -15.96379 | 49.09892 | 35035 ft | 528 kts | 133° |
| 2026-04-26 17:36 | -16.01100 | 49.15756 | 35034 ft | 528 kts | 133° |
| 2026-04-26 17:37 | -16.05811 | 49.21608 | 35029 ft | 528 kts | 133° |
| 2026-04-26 17:37 | -16.10523 | 49.27469 | 35041 ft | 528 kts | 133° |
| 2026-04-26 17:38 | -16.17581 | 49.36257 | 35041 ft | 527 kts | 133° |
| 2026-04-26 17:38 | -16.22276 | 49.42111 | 35022 ft | 527 kts | 133° |
| 2026-04-26 17:39 | -16.26969 | 49.47966 | 35018 ft | 526 kts | 133° |
| 2026-04-26 17:39 | -16.31660 | 49.53824 | 35028 ft | 526 kts | 133° |
| 2026-04-26 17:40 | -16.34758 | 49.57694 | 35010 ft | 526 kts | 133° |
| 2026-04-26 17:40 | -16.40992 | 49.65490 | 35006 ft | 526 kts | 133° |
| 2026-04-26 17:41 | -16.45672 | 49.71348 | 34999 ft | 526 kts | 133° |
| 2026-04-26 17:41 | -16.50351 | 49.77211 | 35019 ft | 525 kts | 132° |
| 2026-04-26 17:42 | -16.55032 | 49.83080 | 34991 ft | 525 kts | 132° |
| 2026-04-26 17:42 | -16.58911 | 49.87949 | 34994 ft | 525 kts | 132° |
| 2026-04-26 17:43 | -16.63581 | 49.93814 | 34990 ft | 525 kts | 132° |
| 2026-04-26 17:43 | -16.68243 | 49.99673 | 34985 ft | 525 kts | 132° |
| 2026-04-26 17:44 | -16.72909 | 50.05537 | 34985 ft | 525 kts | 132° |
| 2026-04-26 17:44 | -16.77545 | 50.11365 | 34985 ft | 525 kts | 132° |
| 2026-04-26 17:45 | -16.82200 | 50.17222 | 34981 ft | 524 kts | 132° |
| 2026-04-26 17:45 | -16.86852 | 50.23083 | 34980 ft | 524 kts | 132° |
| 2026-04-26 17:46 | -16.91498 | 50.28941 | 34980 ft | 524 kts | 132° |
| 2026-04-26 17:46 | -16.96140 | 50.34799 | 34979 ft | 523 kts | 132° |
| 2026-04-26 17:47 | -16.99996 | 50.39669 | 34978 ft | 523 kts | 132° |
| 2026-04-26 17:47 | -17.05416 | 50.46520 | 34978 ft | 523 kts | 132° |
| 2026-04-26 17:48 | -17.10017 | 50.52341 | 34976 ft | 522 kts | 132° |
| 2026-04-26 17:48 | -17.14645 | 50.58202 | 34975 ft | 522 kts | 132° |
| 2026-04-26 17:49 | -17.19270 | 50.64064 | 34977 ft | 522 kts | 132° |
| 2026-04-26 17:49 | -17.23890 | 50.69923 | 34972 ft | 522 kts | 132° |
| 2026-04-26 17:50 | -17.28507 | 50.75785 | 34975 ft | 522 kts | 132° |
| 2026-04-26 17:50 | -17.33120 | 50.81649 | 34969 ft | 522 kts | 132° |
| 2026-04-26 17:51 | -17.37703 | 50.87477 | 34971 ft | 521 kts | 132° |
| 2026-04-26 17:51 | -17.42315 | 50.93349 | 34967 ft | 521 kts | 132° |
| 2026-04-26 17:52 | -17.46919 | 50.99216 | 34969 ft | 521 kts | 132° |
| 2026-04-26 17:52 | -17.51520 | 51.05087 | 34964 ft | 521 kts | 132° |
| 2026-04-26 17:53 | -17.56116 | 51.10961 | 34966 ft | 521 kts | 132° |
| 2026-04-26 17:54 | -17.63001 | 51.19771 | 34965 ft | 521 kts | 132° |
| 2026-04-26 17:54 | -17.67589 | 51.25647 | 34966 ft | 521 kts | 132° |
| 2026-04-26 17:55 | -17.72175 | 51.31527 | 34963 ft | 520 kts | 132° |
| 2026-04-26 17:55 | -17.76727 | 51.37367 | 34963 ft | 520 kts | 132° |
| 2026-04-26 17:56 | -17.81305 | 51.43247 | 34962 ft | 520 kts | 131° |
| 2026-04-26 17:57 | -17.90460 | 51.55021 | 34963 ft | 520 kts | 131° |
| 2026-04-26 17:57 | -17.95029 | 51.60905 | 34958 ft | 520 kts | 131° |
| 2026-04-26 17:58 | -18.04139 | 51.72652 | 34958 ft | 520 kts | 131° |
| 2026-04-26 17:59 | -18.10982 | 51.81492 | 34956 ft | 519 kts | 131° |
| 2026-04-26 17:59 | -18.15551 | 51.87399 | 34957 ft | 519 kts | 131° |
| 2026-04-26 18:00 | -18.20106 | 51.93295 | 34950 ft | 519 kts | 131° |
| 2026-04-26 18:00 | -18.24658 | 51.99192 | 34954 ft | 519 kts | 131° |
| 2026-04-26 18:01 | -18.29208 | 52.05090 | 34955 ft | 519 kts | 131° |
| 2026-04-26 18:01 | -18.33759 | 52.10997 | 34952 ft | 519 kts | 131° |
| 2026-04-26 18:02 | -18.37542 | 52.15911 | 34952 ft | 519 kts | 131° |
| 2026-04-26 18:02 | -18.42832 | 52.22788 | 34951 ft | 520 kts | 131° |
| 2026-04-26 18:03 | -18.47380 | 52.28707 | 34954 ft | 520 kts | 131° |
| 2026-04-26 18:03 | -18.51929 | 52.34634 | 34955 ft | 520 kts | 131° |
| 2026-04-26 18:04 | -18.56477 | 52.40564 | 34947 ft | 520 kts | 131° |
| 2026-04-26 18:05 | -18.63304 | 52.49475 | 34945 ft | 520 kts | 131° |
| 2026-04-26 18:05 | -18.67820 | 52.55379 | 34947 ft | 521 kts | 131° |
| 2026-04-26 18:06 | -18.72371 | 52.61332 | 34953 ft | 521 kts | 131° |
| 2026-04-26 18:06 | -18.76919 | 52.67287 | 34946 ft | 521 kts | 131° |
| 2026-04-26 18:07 | -18.81464 | 52.73244 | 34930 ft | 521 kts | 131° |
| 2026-04-26 18:07 | -18.86008 | 52.79206 | 34944 ft | 520 kts | 131° |
| 2026-04-26 18:08 | -18.90511 | 52.85120 | 34942 ft | 520 kts | 131° |
| 2026-04-26 18:08 | -18.95041 | 52.91074 | 34940 ft | 520 kts | 131° |
| 2026-04-26 18:09 | -18.99568 | 52.97031 | 34934 ft | 520 kts | 131° |
| 2026-04-26 18:09 | -19.04094 | 53.02991 | 34937 ft | 519 kts | 131° |
| 2026-04-26 18:10 | -19.08613 | 53.08949 | 34934 ft | 519 kts | 131° |
| 2026-04-26 18:10 | -19.13127 | 53.14905 | 34937 ft | 519 kts | 131° |
| 2026-04-26 18:11 | -19.17646 | 53.20875 | 34938 ft | 519 kts | 131° |
| 2026-04-26 18:11 | -19.22151 | 53.26831 | 34935 ft | 519 kts | 131° |
| 2026-04-26 18:12 | -19.26632 | 53.32762 | 34940 ft | 519 kts | 131° |
| 2026-04-26 18:12 | -19.31167 | 53.38772 | 34936 ft | 519 kts | 131° |
| 2026-04-26 18:13 | -19.35658 | 53.44683 | 34926 ft | 519 kts | 132° |
| 2026-04-26 18:13 | -19.40281 | 53.50548 | 34927 ft | 518 kts | 133° |
| 2026-04-26 18:14 | -19.44930 | 53.56403 | 34942 ft | 519 kts | 133° |
| 2026-04-26 18:14 | -19.49565 | 53.62274 | 34936 ft | 519 kts | 133° |
| 2026-04-26 18:15 | -19.54185 | 53.68155 | 34930 ft | 519 kts | 132° |
| 2026-04-26 18:15 | -19.56504 | 53.71112 | 34411 ft | 528 kts | 132° |
| 2026-04-26 18:15 | -19.58880 | 53.74139 | 33536 ft | 534 kts | 132° |
| 2026-04-26 18:15 | -19.61251 | 53.77163 | 32643 ft | 534 kts | 132° |
| 2026-04-26 18:16 | -19.63615 | 53.80183 | 32010 ft | 528 kts | 132° |
| 2026-04-26 18:16 | -19.68252 | 53.86114 | 30905 ft | 516 kts | 132° |
| 2026-04-26 18:16 | -19.70531 | 53.89029 | 30359 ft | 510 kts | 132° |
| 2026-04-26 18:17 | -19.72785 | 53.91913 | 29791 ft | 506 kts | 131° |
| 2026-04-26 18:17 | -19.75017 | 53.94769 | 29197 ft | 500 kts | 131° |
| 2026-04-26 18:17 | -19.77201 | 53.97564 | 28637 ft | 494 kts | 132° |
| 2026-04-26 18:17 | -19.79379 | 54.00354 | 28103 ft | 488 kts | 132° |
| 2026-04-26 18:18 | -19.81535 | 54.03117 | 27571 ft | 483 kts | 132° |
| 2026-04-26 18:18 | -19.83666 | 54.05848 | 27059 ft | 477 kts | 132° |
| 2026-04-26 18:18 | -19.85775 | 54.08552 | 26534 ft | 472 kts | 132° |
| 2026-04-26 18:18 | -19.87858 | 54.11225 | 26037 ft | 467 kts | 132° |
| 2026-04-26 18:19 | -19.89927 | 54.13880 | 25526 ft | 463 kts | 132° |
| 2026-04-26 18:19 | -19.91968 | 54.16502 | 25014 ft | 459 kts | 132° |
| 2026-04-26 18:19 | -19.93995 | 54.19105 | 24507 ft | 455 kts | 132° |
| 2026-04-26 18:19 | -19.96006 | 54.21690 | 23994 ft | 451 kts | 132° |
| 2026-04-26 18:20 | -19.98000 | 54.24254 | 23502 ft | 448 kts | 132° |
| 2026-04-26 18:20 | -19.99972 | 54.26791 | 22929 ft | 444 kts | 132° |
| 2026-04-26 18:20 | -20.01271 | 54.28462 | 22574 ft | 441 kts | 132° |
| 2026-04-26 18:20 | -20.02562 | 54.30124 | 22253 ft | 437 kts | 132° |
| 2026-04-26 18:21 | -20.05775 | 54.34264 | 21451 ft | 429 kts | 131° |
| 2026-04-26 18:21 | -20.07668 | 54.36703 | 20970 ft | 425 kts | 131° |
| 2026-04-26 18:21 | -20.08911 | 54.38306 | 20661 ft | 422 kts | 132° |
| 2026-04-26 18:21 | -20.11371 | 54.41479 | 20040 ft | 417 kts | 131° |
| 2026-04-26 18:22 | -20.13209 | 54.43848 | 19577 ft | 414 kts | 131° |
| 2026-04-26 18:22 | -20.15033 | 54.46202 | 19114 ft | 411 kts | 131° |
| 2026-04-26 18:22 | -20.16844 | 54.48540 | 18634 ft | 408 kts | 132° |
| 2026-04-26 18:22 | -20.18039 | 54.50083 | 18327 ft | 406 kts | 131° |
| 2026-04-26 18:23 | -20.20432 | 54.53175 | 17635 ft | 402 kts | 131° |
| 2026-04-26 18:23 | -20.22199 | 54.55460 | 17167 ft | 398 kts | 131° |
| 2026-04-26 18:23 | -20.23949 | 54.57723 | 16709 ft | 394 kts | 131° |
| 2026-04-26 18:23 | -20.25686 | 54.59972 | 16253 ft | 390 kts | 131° |
| 2026-04-26 18:24 | -20.27403 | 54.62194 | 15797 ft | 387 kts | 131° |
| 2026-04-26 18:24 | -20.29107 | 54.64401 | 15362 ft | 384 kts | 130° |
| 2026-04-26 18:24 | -20.30798 | 54.66591 | 14912 ft | 381 kts | 130° |
| 2026-04-26 18:24 | -20.32473 | 54.68761 | 14465 ft | 378 kts | 130° |
| 2026-04-26 18:25 | -20.34139 | 54.70920 | 14021 ft | 376 kts | 130° |
| 2026-04-26 18:25 | -20.35775 | 54.73041 | 13553 ft | 374 kts | 130° |
| 2026-04-26 18:25 | -20.37421 | 54.75177 | 13085 ft | 371 kts | 129° |
| 2026-04-26 18:25 | -20.39052 | 54.77293 | 12638 ft | 367 kts | 129° |
| 2026-04-26 18:26 | -20.40668 | 54.79392 | 12189 ft | 364 kts | 129° |
| 2026-04-26 18:26 | -20.42264 | 54.81465 | 11764 ft | 361 kts | 129° |
| 2026-04-26 18:26 | -20.43850 | 54.83525 | 11336 ft | 357 kts | 129° |
| 2026-04-26 18:26 | -20.44856 | 54.84832 | 11075 ft | 355 kts | 129° |
| 2026-04-26 18:27 | -20.46848 | 54.87421 | 10781 ft | 343 kts | 129° |
| 2026-04-26 18:27 | -20.48323 | 54.89339 | 10638 ft | 335 kts | 128° |
| 2026-04-26 18:27 | -20.49777 | 54.91231 | 10504 ft | 324 kts | 128° |
| 2026-04-26 18:27 | -20.50732 | 54.92473 | 10413 ft | 317 kts | 128° |
| 2026-04-26 18:28 | -20.52545 | 54.94832 | 10246 ft | 304 kts | 128° |
| 2026-04-26 18:28 | -20.53867 | 54.96552 | 10119 ft | 295 kts | 128° |
| 2026-04-26 18:28 | -20.55148 | 54.98222 | 9991 ft | 287 kts | 128° |
| 2026-04-26 18:28 | -20.56406 | 54.99861 | 9773 ft | 282 kts | 128° |
| 2026-04-26 18:29 | -20.57624 | 55.01449 | 9392 ft | 272 kts | 127° |
| 2026-04-26 18:29 | -20.58806 | 55.02989 | 9084 ft | 264 kts | 127° |
| 2026-04-26 18:29 | -20.59959 | 55.04492 | 8774 ft | 260 kts | 127° |
| 2026-04-26 18:29 | -20.61092 | 55.05971 | 8478 ft | 254 kts | 127° |
| 2026-04-26 18:30 | -20.62208 | 55.07428 | 8206 ft | 255 kts | 127° |
| 2026-04-26 18:30 | -20.63291 | 55.08844 | 7931 ft | 257 kts | 127° |
| 2026-04-26 18:30 | -20.64426 | 55.10327 | 7641 ft | 259 kts | 127° |
| 2026-04-26 18:30 | -20.65573 | 55.11826 | 7337 ft | 262 kts | 127° |
| 2026-04-26 18:31 | -20.66724 | 55.13328 | 7044 ft | 261 kts | 127° |
| 2026-04-26 18:31 | -20.67873 | 55.14829 | 6734 ft | 260 kts | 127° |
| 2026-04-26 18:31 | -20.69016 | 55.16323 | 6431 ft | 259 kts | 127° |
| 2026-04-26 18:31 | -20.70152 | 55.17809 | 6121 ft | 258 kts | 127° |
| 2026-04-26 18:32 | -20.71286 | 55.19292 | 5808 ft | 257 kts | 127° |
| 2026-04-26 18:32 | -20.72401 | 55.20749 | 5505 ft | 256 kts | 127° |
| 2026-04-26 18:32 | -20.73524 | 55.22219 | 5217 ft | 254 kts | 127° |
| 2026-04-26 18:32 | -20.74641 | 55.23682 | 4926 ft | 254 kts | 127° |
| 2026-04-26 18:33 | -20.75733 | 55.25111 | 4715 ft | 249 kts | 127° |
| 2026-04-26 18:33 | -20.76468 | 55.26073 | 4619 ft | 245 kts | 127° |
| 2026-04-26 18:33 | -20.77856 | 55.27899 | 4439 ft | 234 kts | 124° |
| 2026-04-26 18:33 | -20.78412 | 55.28852 | 4244 ft | 230 kts | 116° |
| 2026-04-26 18:34 | -20.79106 | 55.30370 | 4058 ft | 225 kts | 115° |
| 2026-04-26 18:34 | -20.79777 | 55.31866 | 3796 ft | 222 kts | 115° |
| 2026-04-26 18:34 | -20.80447 | 55.33329 | 3566 ft | 218 kts | 115° |
| 2026-04-26 18:34 | -20.81109 | 55.34760 | 3306 ft | 217 kts | 115° |
| 2026-04-26 18:35 | -20.81774 | 55.36193 | 3027 ft | 211 kts | 115° |
| 2026-04-26 18:35 | -20.82421 | 55.37581 | 2683 ft | 201 kts | 115° |
| 2026-04-26 18:35 | -20.83021 | 55.38864 | 2391 ft | 190 kts | 115° |
| 2026-04-26 18:35 | -20.83593 | 55.40091 | 2124 ft | 178 kts | 116° |
| 2026-04-26 18:36 | -20.84125 | 55.41226 | 1947 ft | 166 kts | 116° |
| 2026-04-26 18:36 | -20.84635 | 55.42320 | 1749 ft | 162 kts | 115° |
| 2026-04-26 18:36 | -20.85136 | 55.43388 | 1582 ft | 160 kts | 117° |
| 2026-04-26 18:36 | -20.85629 | 55.44441 | 1319 ft | 156 kts | 117° |
| 2026-04-26 18:37 | -20.86091 | 55.45426 | 1117 ft | 141 kts | 117° |
| 2026-04-26 18:37 | -20.86521 | 55.46304 | 953 ft | 129 kts | 117° |
| 2026-04-26 18:37 | -20.86672 | 55.46579 | 910 ft | 126 kts | 119° |